Time;durP1;ratioP1;P1;durP2;ratioP2;P2;SDS_P1;SDS_P2;PMS_P1;PMS_P2;Temp;Humidity;BMP_temperature;BMP_pressure;BME280_temperature;BME280_humidity;BME280_pressure;Samples;Min_cycle;Max_cycle;Signal;HPM_P1;HPM_P2
2021/11/11 00:00:01;;;;;;;65.62;39.03;;;;;;;1.95;83.26;100990.98;1856747;77;20957;-84
2021/11/11 00:02:27;;;;;;;60.90;33.75;;;;;;;1.93;83.36;100992.30;1833387;77;21037;-84
2021/11/11 00:04:53;;;;;;;64.10;35.80;;;;;;;1.90;83.32;100991.08;1822958;77;21449;-84
2021/11/11 00:07:19;;;;;;;60.08;34.33;;;;;;;1.86;83.38;100990.31;1822858;79;21009;-84
2021/11/11 00:09:46;;;;;;;57.40;32.28;;;;;;;1.85;83.31;100986.46;1822952;77;20995;-84
2021/11/11 00:12:11;;;;;;;57.55;33.60;;;;;;;1.80;83.27;100994.38;1822823;79;20959;-84
2021/11/11 00:14:37;;;;;;;60.03;34.92;;;;;;;1.79;83.61;100995.72;1828482;77;21011;-84
2021/11/11 00:17:04;;;;;;;55.67;32.38;;;;;;;1.78;83.67;100996.17;1836830;77;20993;-84
2021/11/11 00:19:30;;;;;;;56.65;31.75;;;;;;;1.78;83.77;101009.19;1821962;77;20965;-84
2021/11/11 00:21:56;;;;;;;58.00;35.00;;;;;;;1.75;83.76;101011.87;1820849;79;20963;-84
2021/11/11 00:24:22;;;;;;;55.70;32.13;;;;;;;1.74;83.65;101006.69;1850753;77;20986;-84
2021/11/11 00:26:48;;;;;;;52.80;31.10;;;;;;;1.71;83.77;101008.94;1856501;77;20988;-84
2021/11/11 00:29:14;;;;;;;50.58;30.25;;;;;;;1.70;83.64;100998.55;1847900;77;21425;-84
2021/11/11 00:31:40;;;;;;;54.40;31.87;;;;;;;1.69;83.69;101003.36;1838616;77;20972;-84
2021/11/11 00:34:06;;;;;;;50.05;29.67;;;;;;;1.66;83.56;101000.38;1852944;77;20969;-84
2021/11/11 00:36:32;;;;;;;50.80;30.52;;;;;;;1.64;83.91;100999.55;1856730;77;20990;-84
2021/11/11 00:38:58;;;;;;;50.38;29.50;;;;;;;1.63;83.86;101001.75;1835430;77;20966;-84
2021/11/11 00:41:25;;;;;;;50.12;30.15;;;;;;;1.60;83.74;101007.88;1823518;77;20935;-84
2021/11/11 00:43:51;;;;;;;54.50;31.62;;;;;;;1.56;83.68;101007.56;1822810;79;21006;-84
2021/11/11 00:46:17;;;;;;;46.37;28.23;;;;;;;1.54;83.98;101015.83;1837127;77;21435;-84
2021/11/11 00:48:43;;;;;;;44.40;29.07;;;;;;;1.53;84.15;101009.38;1850204;77;20938;-84
2021/11/11 00:51:09;;;;;;;47.85;32.15;;;;;;;1.52;84.13;101003.78;1854308;77;20953;-84
2021/11/11 00:53:35;;;;;;;54.77;30.43;;;;;;;1.49;84.07;101001.25;1856648;77;21377;-84
2021/11/11 00:56:01;;;;;;;44.98;27.52;;;;;;;1.45;84.01;101006.09;1856463;76;21021;-84
2021/11/11 00:58:27;;;;;;;49.05;28.50;;;;;;;1.43;84.10;101002.70;1843854;77;20961;-84
2021/11/11 01:00:53;;;;;;;53.35;28.20;;;;;;;1.38;84.16;100996.28;1856684;77;20985;-84
2021/11/11 01:03:25;;;;;;;45.92;29.00;;;;;;;1.35;84.08;100997.66;1842046;77;20973;-84
2021/11/11 01:05:49;;;;;;;47.38;27.42;;;;;;;1.28;83.84;100993.05;1844367;77;21030;-84
2021/11/11 01:08:15;;;;;;;45.17;26.85;;;;;;;1.24;84.19;100990.12;1845210;77;21482;-84
2021/11/11 01:10:41;;;;;;;46.70;29.10;;;;;;;1.22;84.30;100993.22;1818552;78;20976;-84
2021/11/11 01:13:08;;;;;;;51.42;30.08;;;;;;;1.21;84.36;100988.04;1816105;79;21016;-84
2021/11/11 01:15:34;;;;;;;47.05;26.85;;;;;;;1.20;84.38;100985.04;1816015;79;21023;-84
2021/11/11 01:18:03;;;;;;;47.78;29.70;;;;;;;1.19;84.26;100984.64;1825708;78;20953;-84
2021/11/11 01:20:29;;;;;;;44.03;28.20;;;;;;;1.20;84.54;100979.39;1846559;77;20953;-84
2021/11/11 01:22:57;;;;;;;45.70;28.30;;;;;;;1.21;84.70;100985.44;1824473;77;20963;-84
2021/11/11 01:25:27;;;;;;;42.43;27.77;;;;;;;1.20;84.66;100976.79;1822095;77;21006;-84
2021/11/11 01:27:53;;;;;;;46.63;27.45;;;;;;;1.19;84.88;100989.39;1823073;79;20947;-84
2021/11/11 01:30:19;;;;;;;46.95;28.30;;;;;;;1.20;85.06;100988.94;1822965;78;21065;-84
2021/11/11 01:32:45;;;;;;;51.88;29.20;;;;;;;1.19;85.13;100985.94;1822662;79;21014;-84
2021/11/11 01:35:13;;;;;;;45.35;27.50;;;;;;;1.20;85.31;100979.39;1822689;78;21013;-84
2021/11/11 01:37:41;;;;;;;43.80;26.30;;;;;;;1.19;85.08;100986.79;1805378;79;21021;-84
2021/11/11 01:40:08;;;;;;;44.73;24.67;;;;;;;1.16;84.90;100990.31;1816932;79;21076;-84
2021/11/11 01:42:56;;;;;;;49.65;28.73;;;;;;;1.13;85.07;101003.37;1816782;79;20965;-84
2021/11/11 01:45:33;;;;;;;44.42;25.30;;;;;;;1.13;85.27;100991.67;1816807;79;20991;-84
2021/11/11 01:47:59;;;;;;;43.85;25.32;;;;;;;1.10;84.95;100995.64;1815202;79;21001;-84
2021/11/11 01:50:28;;;;;;;45.58;26.82;;;;;;;1.07;85.01;100993.56;1819932;77;20978;-84
2021/11/11 01:52:54;;;;;;;42.25;24.40;;;;;;;1.04;85.02;100988.43;1830253;77;20967;-84
2021/11/11 01:55:21;;;;;;;47.98;27.13;;;;;;;1.03;85.17;100981.53;1855687;77;20985;-83
2021/11/11 01:57:47;;;;;;;44.38;26.07;;;;;;;1.04;85.34;100971.53;1856515;76;21060;-83
2021/11/11 02:00:21;;;;;;;47.90;27.85;;;;;;;1.02;84.85;100965.51;1856812;77;20961;-83
2021/11/11 02:02:58;;;;;;;48.15;27.37;;;;;;;0.97;84.93;100969.52;1856895;77;20953;-83
2021/11/11 02:05:26;;;;;;;46.73;30.02;;;;;;;0.94;85.00;100970.89;1856257;77;21005;-83
2021/11/11 02:07:53;;;;;;;50.70;31.90;;;;;;;0.91;85.10;100971.80;1856551;77;21032;-83
2021/11/11 02:10:20;;;;;;;50.70;30.35;;;;;;;0.88;85.25;100966.67;1856957;77;20993;-83
2021/11/11 02:12:47;;;;;;;52.03;31.65;;;;;;;0.87;85.24;100963.67;1829968;77;21044;-83
2021/11/11 02:15:15;;;;;;;51.30;34.08;;;;;;;0.86;85.16;100959.37;1792360;79;20954;-83
2021/11/11 02:17:42;;;;;;;55.92;34.03;;;;;;;0.82;85.13;100966.81;1791879;78;21009;-83
2021/11/11 02:20:15;;;;;;;57.20;33.90;;;;;;;0.80;85.39;100969.91;1804614;78;20948;-83
2021/11/11 02:22:41;;;;;;;58.63;32.80;;;;;;;0.80;85.36;100969.91;1803288;79;21466;-83
2021/11/11 02:25:12;;;;;;;52.30;31.87;;;;;;;0.78;85.24;100966.47;1802073;79;20989;-83
2021/11/11 02:27:38;;;;;;;56.73;31.95;;;;;;;0.76;85.19;100960.48;1776435;80;21551;-83
2021/11/11 02:30:07;;;;;;;66.10;34.78;;;;;;;0.73;85.18;100954.05;1775078;81;21014;-83
2021/11/11 02:32:35;;;;;;;58.05;32.17;;;;;;;0.72;85.28;100960.56;1775166;81;20962;-83
2021/11/11 02:35:03;;;;;;;57.65;31.27;;;;;;;0.68;85.32;100963.67;1775277;80;21374;-83
2021/11/11 02:37:33;;;;;;;54.00;32.48;;;;;;;0.64;85.38;100958.98;1778000;80;20987;-83
2021/11/11 02:40:07;;;;;;;53.10;30.88;;;;;;;0.66;85.48;100960.27;1792359;80;20957;-84
2021/11/11 02:42:34;;;;;;;60.88;33.78;;;;;;;0.66;85.30;100964.16;1794935;78;20989;-84
2021/11/11 02:45:05;;;;;;;67.95;35.78;;;;;;;0.63;85.53;100960.34;1856830;77;21034;-84
2021/11/11 02:47:32;;;;;;;63.83;31.02;;;;;;;0.60;85.46;100955.20;1850022;77;21001;-84
2021/11/11 02:49:58;;;;;;;55.00;32.53;;;;;;;0.59;85.37;100958.67;1857117;77;21001;-84
2021/11/11 02:52:25;;;;;;;48.45;27.90;;;;;;;0.57;85.25;100958.72;1829760;77;21050;-84
2021/11/11 02:54:52;;;;;;;46.02;26.95;;;;;;;0.54;85.22;100952.73;1822439;78;21006;-84
2021/11/11 02:57:29;;;;;;;46.25;28.70;;;;;;;0.53;85.52;100944.09;1822657;79;21524;-84
2021/11/11 02:59:59;;;;;;;52.43;28.00;;;;;;;0.56;85.87;100934.05;1822887;77;21029;-85
2021/11/11 03:02:29;;;;;;;53.73;29.12;;;;;;;0.57;85.98;100935.79;1823028;79;20997;-85
2021/11/11 03:04:57;;;;;;;49.77;31.97;;;;;;;0.61;86.22;100930.93;1822931;79;20998;-85
2021/11/11 03:07:24;;;;;;;55.90;31.62;;;;;;;0.65;86.05;100933.86;1822933;79;20983;-85
2021/11/11 03:09:53;;;;;;;50.78;32.63;;;;;;;0.65;86.14;100930.81;1823273;79;21029;-85
2021/11/11 03:12:21;;;;;;;55.88;32.08;;;;;;;0.69;86.22;100932.90;1816794;78;21489;-85
2021/11/11 03:14:50;;;;;;;54.33;31.80;;;;;;;0.71;86.01;100942.83;1795258;78;20972;-85
2021/11/11 03:17:17;;;;;;;55.98;33.18;;;;;;;0.72;86.28;100944.52;1793856;80;21007;-85
2021/11/11 03:19:44;;;;;;;58.87;32.93;;;;;;;0.77;86.65;100950.94;1794619;80;20980;-85
2021/11/11 03:22:20;;;;;;;51.13;28.98;;;;;;;0.77;86.30;100947.89;1794147;80;21487;-85
2021/11/11 03:24:49;;;;;;;53.60;28.17;;;;;;;0.76;86.20;100944.89;1794251;80;21028;-85
2021/11/11 03:27:17;;;;;;;47.73;28.98;;;;;;;0.76;86.48;100948.78;1794118;80;21468;-85
2021/11/11 03:29:46;;;;;;;47.35;28.60;;;;;;;0.80;86.11;100946.52;1794150;80;21414;-85
2021/11/11 03:32:12;;;;;;;47.90;29.07;;;;;;;0.82;86.51;100948.63;1790658;80;20981;-85
2021/11/11 03:34:38;;;;;;;50.00;30.77;;;;;;;0.83;86.08;100945.61;1800262;78;21587;-85
2021/11/11 03:37:05;;;;;;;44.33;26.23;;;;;;;0.84;86.43;100946.86;1793210;80;20969;-85
2021/11/11 03:39:32;;;;;;;48.20;27.48;;;;;;;0.89;86.10;100931.18;1783487;80;21492;-85
2021/11/11 03:41:58;;;;;;;40.38;26.48;;;;;;;0.89;85.92;100933.33;1805884;79;21033;-85
2021/11/11 03:44:24;;;;;;;42.62;26.07;;;;;;;0.90;85.80;100938.92;1783480;80;21052;-85
2021/11/11 03:46:55;;;;;;;43.42;26.97;;;;;;;0.91;86.01;100936.73;1805826;79;21471;-85
2021/11/11 03:49:22;;;;;;;51.30;28.12;;;;;;;0.90;85.92;100931.13;1771344;81;21021;-85
2021/11/11 03:51:49;;;;;;;47.08;28.83;;;;;;;0.87;85.93;100935.09;1806300;79;20981;-85
2021/11/11 03:54:18;;;;;;;47.27;26.40;;;;;;;0.86;86.08;100932.09;1802796;79;21472;-85
2021/11/11 03:56:48;;;;;;;43.73;26.20;;;;;;;0.87;85.98;100935.09;1802547;79;21014;-85
2021/11/11 03:59:16;;;;;;;45.33;26.07;;;;;;;0.83;85.81;100927.42;1802144;79;21014;-85
2021/11/11 04:01:44;;;;;;;43.10;26.17;;;;;;;0.77;85.76;100934.90;1803736;78;20980;-85
2021/11/11 04:04:11;;;;;;;39.90;26.00;;;;;;;0.70;85.79;100934.63;1803078;79;20991;-85
2021/11/11 04:06:37;;;;;;;44.42;24.82;;;;;;;0.64;85.68;100936.06;1803243;79;21018;-85
2021/11/11 04:09:04;;;;;;;45.15;27.45;;;;;;;0.61;85.55;100936.13;1803442;79;21466;-85
2021/11/11 04:11:31;;;;;;;44.27;26.45;;;;;;;0.58;85.71;100940.09;1803063;79;20987;-85
2021/11/11 04:13:59;;;;;;;43.68;26.90;;;;;;;0.59;86.02;100939.19;1815776;79;21033;-85
2021/11/11 04:16:25;;;;;;;43.98;25.45;;;;;;;0.59;85.95;100944.38;1816445;79;20993;-85
2021/11/11 04:18:52;;;;;;;45.63;25.92;;;;;;;0.56;85.95;100940.55;1817265;78;20993;-85
2021/11/11 04:21:18;;;;;;;39.85;26.02;;;;;;;0.56;86.09;100938.84;1816681;79;21644;-85
2021/11/11 04:23:46;;;;;;;36.80;24.15;;;;;;;0.58;85.88;100937.48;1809059;78;20940;-85
2021/11/11 04:26:32;;;;;;;42.58;26.40;;;;;;;0.59;86.12;100932.69;1807609;78;21004;-85
2021/11/11 04:31:34;;;;;;;47.40;29.20;;;;;;;0.54;85.86;100938.00;1838729;78;21510;-85
2021/11/11 04:34:04;;;;;;;45.80;27.37;;;;;;;0.54;85.82;100939.30;1838430;78;21035;-85
2021/11/11 04:44:51;;;;;;;45.67;28.52;;;;;;;0.50;86.24;100935.52;1773164;80;21405;-82
2021/11/11 04:52:32;;;;;;;42.58;25.05;;;;;;;0.42;86.18;100936.95;1780308;80;21011;-84
2021/11/11 05:03:08;;;;;;;70.72;41.45;;;;;;;0.36;86.41;100932.77;1773406;80;21038;-84
2021/11/11 05:05:31;;;;;;;63.58;34.78;;;;;;;0.39;86.84;100926.62;1772328;81;21108;-83
2021/11/11 05:07:58;;;;;;;58.60;33.02;;;;;;;0.41;86.26;100928.77;1772838;81;21034;-84
2021/11/11 05:10:25;;;;;;;50.12;31.70;;;;;;;0.39;86.52;100920.14;1744432;82;21009;-84
2021/11/11 05:12:51;;;;;;;51.98;30.10;;;;;;;0.42;86.54;100921.37;1758192;79;20941;-84
2021/11/11 05:15:18;;;;;;;50.12;30.95;;;;;;;0.41;86.24;100923.12;1775166;80;20977;-84
2021/11/11 05:17:45;;;;;;;56.13;29.72;;;;;;;0.37;86.17;100927.97;1803279;79;21444;-84
2021/11/11 05:20:18;;;;;;;56.35;31.12;;;;;;;0.32;86.15;100928.50;1829994;78;21064;-84
2021/11/11 05:22:45;;;;;;;50.98;33.00;;;;;;;0.27;86.25;100922.56;1816914;78;21458;-84
2021/11/11 05:25:14;;;;;;;56.65;34.27;;;;;;;0.25;86.18;100928.67;1803009;79;21031;-83
2021/11/11 05:27:44;;;;;;;54.40;32.83;;;;;;;0.22;86.38;100924.39;1802487;79;21022;-84
2021/11/11 05:30:14;;;;;;;56.98;35.25;;;;;;;0.24;86.63;100918.73;1803079;79;21121;-84
2021/11/11 05:32:40;;;;;;;61.68;33.20;;;;;;;0.26;86.64;100905.26;1802796;78;20995;-84
2021/11/11 05:35:10;;;;;;;59.88;34.10;;;;;;;0.25;86.75;100908.75;1802517;79;21449;-84
2021/11/11 05:37:37;;;;;;;57.20;31.07;;;;;;;0.26;86.37;100905.70;1800329;79;21020;-84
2021/11/11 05:40:06;;;;;;;59.90;32.20;;;;;;;0.20;86.27;100909.31;1791109;79;21029;-84
2021/11/11 05:42:32;;;;;;;56.33;32.58;;;;;;;0.20;86.69;100902.81;1795146;79;20993;-84
2021/11/11 05:44:58;;;;;;;57.40;31.93;;;;;;;0.19;86.49;100898.05;1790731;79;21050;-84
2021/11/11 05:47:25;;;;;;;63.25;36.45;;;;;;;0.18;86.58;100895.50;1792039;78;20958;-84
2021/11/11 05:49:51;;;;;;;60.10;36.53;;;;;;;0.18;86.52;100891.60;1798684;78;21564;-84
2021/11/11 05:52:17;;;;;;;63.42;34.38;;;;;;;0.18;86.45;100899.39;1799712;79;20966;-84
2021/11/11 05:54:43;;;;;;;68.72;40.52;;;;;;;0.16;86.17;100907.64;1792879;79;21024;-84
2021/11/11 05:57:09;;;;;;;69.72;39.67;;;;;;;0.12;86.16;100911.19;1792759;79;20943;-84
2021/11/11 05:59:39;;;;;;;59.20;34.27;;;;;;;0.11;86.45;100912.08;1791081;80;21006;-83
2021/11/11 06:02:11;;;;;;;97.60;49.40;;;;;;;0.11;86.39;100906.89;1790746;80;21058;-84
2021/11/11 06:04:38;;;;;;;69.23;39.83;;;;;;;0.11;86.35;100906.45;1771113;81;21046;-84
2021/11/11 06:07:05;;;;;;;74.25;43.75;;;;;;;0.11;86.65;100901.70;1770374;79;21485;-83
2021/11/11 06:09:32;;;;;;;82.05;43.58;;;;;;;0.11;86.70;100910.34;1842952;78;21459;-84
2021/11/11 06:11:58;;;;;;;90.03;46.42;;;;;;;0.10;86.51;100906.45;1843110;78;20988;-84
2021/11/11 06:14:24;;;;;;;100.10;50.95;;;;;;;0.10;86.75;100907.76;1842886;77;20998;-84
2021/11/11 06:16:51;;;;;;;98.27;52.27;;;;;;;0.11;86.74;100900.41;1842463;76;21022;-84
2021/11/11 06:19:17;;;;;;;105.78;54.73;;;;;;;0.12;86.83;100891.72;1843463;76;20983;-84
2021/11/11 06:21:44;;;;;;;94.95;55.43;;;;;;;0.12;86.59;100900.80;1842730;78;21023;-84
2021/11/11 06:24:12;;;;;;;95.77;52.00;;;;;;;0.09;86.44;100886.59;1840445;78;22224;-84
2021/11/11 06:26:38;;;;;;;87.33;48.08;;;;;;;0.13;86.45;100899.91;1834198;78;21523;-83
2021/11/11 06:29:04;;;;;;;91.02;50.05;;;;;;;0.13;86.50;100899.50;1830631;78;20978;-84
2021/11/11 06:31:31;;;;;;;80.15;48.45;;;;;;;0.17;86.73;100901.58;1829869;78;20978;-84
2021/11/11 06:33:58;;;;;;;78.05;46.25;;;;;;;0.16;86.65;100903.75;1830508;78;21476;-84
2021/11/11 06:36:25;;;;;;;72.27;42.40;;;;;;;0.12;86.54;100909.89;1831113;78;21544;-84
2021/11/11 06:38:51;;;;;;;68.05;37.95;;;;;;;0.11;86.63;100912.08;1840609;78;20960;-84
2021/11/11 06:41:17;;;;;;;89.52;47.75;;;;;;;0.10;86.68;100913.83;1843041;77;21064;-84
2021/11/11 06:43:43;;;;;;;75.30;42.53;;;;;;;0.09;86.67;100916.44;1842920;78;21562;-83
2021/11/11 06:46:10;;;;;;;93.85;49.77;;;;;;;0.07;86.70;100919.53;1865659;76;20900;-84
2021/11/11 06:48:37;;;;;;;76.95;42.90;;;;;;;0.06;86.83;100908.71;1871454;76;21026;-83
2021/11/11 06:51:04;;;;;;;73.35;41.73;;;;;;;0.05;86.90;100902.67;1859140;76;20964;-84
2021/11/11 06:53:30;;;;;;;70.30;39.53;;;;;;;0.08;87.28;100903.91;1839352;78;21522;-83
2021/11/11 06:55:57;;;;;;;85.15;43.70;;;;;;;0.09;87.17;100898.27;1841399;76;21298;-84
2021/11/11 06:58:24;;;;;;;87.78;47.60;;;;;;;0.07;87.02;100903.95;1841965;78;21017;-83
2021/11/11 07:01:00;;;;;;;112.75;58.85;;;;;;;0.10;87.36;100910.35;1841162;78;21012;-84
2021/11/11 07:03:27;;;;;;;101.35;53.90;;;;;;;0.13;87.59;100909.00;1841506;76;21504;-84
2021/11/11 07:05:54;;;;;;;85.22;46.28;;;;;;;0.17;87.80;100921.90;1839666;77;21465;-84
2021/11/11 07:08:20;;;;;;;108.60;52.85;;;;;;;0.20;88.04;100910.61;1835708;78;20999;-84
2021/11/11 07:10:51;;;;;;;69.82;36.85;;;;;;;0.22;87.84;100918.75;1835412;77;22134;-84
2021/11/11 07:13:18;;;;;;;49.30;30.68;;;;;;;0.23;87.62;100928.69;1830827;78;20934;-84
2021/11/11 07:15:45;;;;;;;65.97;34.48;;;;;;;0.22;87.52;100934.32;1824954;78;21029;-84
2021/11/11 07:18:13;;;;;;;57.20;35.13;;;;;;;0.20;87.83;100927.48;1824865;78;21020;-84
2021/11/11 07:20:44;;;;;;;67.78;40.03;;;;;;;0.23;87.74;100922.19;1824649;78;21046;-84
2021/11/11 07:23:11;;;;;;;82.22;43.90;;;;;;;0.25;88.01;100921.73;1840841;77;21482;-84
2021/11/11 07:25:37;;;;;;;67.72;36.80;;;;;;;0.27;88.08;100930.35;1835283;78;20992;-84
2021/11/11 07:28:04;;;;;;;65.70;37.28;;;;;;;0.29;88.18;100931.16;1835888;78;21015;-84
2021/11/11 07:30:30;;;;;;;77.97;47.27;;;;;;;0.32;88.33;100936.29;1835193;78;21509;-84
2021/11/11 07:32:56;;;;;;;80.25;46.98;;;;;;;0.37;88.57;100926.67;1835941;78;20980;-84
2021/11/11 07:35:24;;;;;;;71.55;40.43;;;;;;;0.44;88.72;100918.31;1835528;78;21003;-84
2021/11/11 07:37:52;;;;;;;78.52;46.15;;;;;;;0.49;88.72;100909.11;1835903;78;21507;-84
2021/11/11 07:40:23;;;;;;;69.82;41.58;;;;;;;0.54;88.85;100907.28;1843658;76;21747;-84
2021/11/11 07:42:50;;;;;;;68.95;42.27;;;;;;;0.62;88.92;100904.91;1841730;77;21446;-84
2021/11/11 07:45:18;;;;;;;66.67;39.18;;;;;;;0.71;89.27;100898.66;1828921;77;20935;-83
2021/11/11 07:47:45;;;;;;;58.95;35.33;;;;;;;0.80;89.35;100895.86;1839291;77;21447;-84
2021/11/11 07:50:11;;;;;;;61.05;35.48;;;;;;;0.90;89.61;100899.09;1851248;77;20977;-84
2021/11/11 07:52:38;;;;;;;56.83;36.25;;;;;;;0.99;89.69;100898.89;1851361;77;21028;-84
2021/11/11 07:55:07;;;;;;;55.30;34.20;;;;;;;1.06;89.80;100901.74;1851122;77;21466;-84
2021/11/11 07:57:34;;;;;;;50.98;33.78;;;;;;;1.14;89.88;100896.34;1851470;76;21502;-84
2021/11/11 08:00:05;;;;;;;55.70;32.65;;;;;;;1.21;89.93;100900.95;1825026;77;21464;-84
2021/11/11 08:02:31;;;;;;;55.33;34.58;;;;;;;1.27;90.35;100910.75;1837983;77;20991;-84
2021/11/11 08:04:57;;;;;;;54.63;31.68;;;;;;;1.36;91.17;100906.62;1871548;77;21593;-84
2021/11/11 08:07:23;;;;;;;76.90;46.63;;;;;;;1.48;90.97;100905.89;1871262;76;20935;-84
2021/11/11 08:09:50;;;;;;;56.48;35.43;;;;;;;1.54;90.92;100907.88;1848639;76;20972;-84
2021/11/11 08:12:17;;;;;;;60.70;35.38;;;;;;;1.61;91.30;100905.55;1841668;76;20947;-85
2021/11/11 08:14:44;;;;;;;56.23;34.38;;;;;;;1.72;91.29;100902.66;1841671;77;21046;-85
2021/11/11 08:17:14;;;;;;;50.17;32.63;;;;;;;1.82;91.18;100902.81;1840881;78;21510;-85
2021/11/11 08:19:39;;;;;;;55.80;37.93;;;;;;;1.92;91.49;100907.77;1841708;76;21485;-85
2021/11/11 08:22:06;;;;;;;65.70;39.15;;;;;;;2.01;91.57;100903.62;1834397;76;20959;-85
2021/11/11 08:24:33;;;;;;;53.38;34.23;;;;;;;2.13;91.80;100905.00;1818945;79;20989;-84
2021/11/11 08:27:00;;;;;;;48.83;30.70;;;;;;;2.22;92.12;100904.30;1818491;79;21041;-85
2021/11/11 08:29:26;;;;;;;54.08;31.70;;;;;;;2.35;92.50;100903.03;1818947;79;20969;-85
2021/11/11 08:31:52;;;;;;;55.30;32.00;;;;;;;2.48;92.42;100898.77;1833256;76;21005;-84
2021/11/11 08:34:18;;;;;;;54.50;33.25;;;;;;;2.63;92.48;100900.05;1837363;78;20997;-86
2021/11/11 08:36:44;;;;;;;50.55;31.80;;;;;;;2.71;92.46;100900.22;1839245;76;20965;-84
2021/11/11 08:39:09;;;;;;;54.83;33.25;;;;;;;2.86;92.28;100903.24;1841879;77;21021;-87
2021/11/11 08:41:35;;;;;;;53.52;31.40;;;;;;;2.97;92.26;100899.86;1842630;76;20998;-86
2021/11/11 08:44:05;;;;;;;54.85;31.30;;;;;;;3.06;92.16;100908.70;1836412;78;20922;-87
2021/11/11 08:46:29;;;;;;;56.00;35.58;;;;;;;3.18;92.45;100897.00;1835814;78;20995;-87
2021/11/11 08:48:55;;;;;;;52.70;33.23;;;;;;;3.29;91.68;100911.41;1835078;78;21477;-86
2021/11/11 08:51:21;;;;;;;54.35;30.08;;;;;;;3.40;92.22;100908.42;1834763;78;21013;-86
2021/11/11 08:53:47;;;;;;;48.65;30.48;;;;;;;3.55;92.51;100910.11;1837014;78;20974;-87
2021/11/11 08:56:13;;;;;;;44.38;30.90;;;;;;;3.68;91.96;100908.31;1835774;77;20997;-87
2021/11/11 08:58:39;;;;;;;46.80;31.05;;;;;;;3.79;92.12;100910.58;1832551;78;21497;-86
2021/11/11 09:01:06;;;;;;;45.63;29.72;;;;;;;3.95;91.96;100909.59;1835520;78;20977;-83
2021/11/11 09:03:38;;;;;;;47.35;29.70;;;;;;;4.05;91.19;100908.34;1832064;78;21050;-84
2021/11/11 09:06:04;;;;;;;48.55;31.23;;;;;;;4.17;91.73;100904.41;1834373;77;21002;-88
2021/11/11 09:08:30;;;;;;;49.13;32.88;;;;;;;4.34;91.63;100909.85;1837262;78;20946;-88
2021/11/11 09:10:57;;;;;;;48.92;32.23;;;;;;;4.45;91.41;100910.32;1841153;78;21056;-88
2021/11/11 09:13:26;;;;;;;49.88;34.70;;;;;;;4.61;91.64;100904.52;1841434;78;21006;-88
2021/11/11 09:15:52;;;;;;;52.65;33.10;;;;;;;4.76;91.33;100896.05;1841347;77;21017;-88
2021/11/11 09:18:18;;;;;;;50.43;33.55;;;;;;;4.93;91.54;100898.84;1841619;77;22195;-88
2021/11/11 09:20:44;;;;;;;49.13;32.50;;;;;;;5.07;90.86;100902.23;1858410;76;20969;-88
2021/11/11 09:23:11;;;;;;;61.50;38.67;;;;;;;5.15;90.14;100901.45;1852253;76;21572;-88
2021/11/11 09:25:38;;;;;;;59.15;39.70;;;;;;;5.22;89.97;100902.52;1841483;77;21992;-85
2021/11/11 09:28:05;;;;;;;57.30;38.45;;;;;;;5.33;90.58;100902.48;1841375;77;21025;-88
2021/11/11 09:30:37;;;;;;;42.05;29.48;;;;;;;5.51;90.84;100894.30;1841151;78;21523;-88
2021/11/11 09:33:09;;;;;;;44.45;32.55;;;;;;;5.63;90.08;100896.39;1841645;78;20978;-88
2021/11/11 09:35:37;;;;;;;45.38;31.25;;;;;;;5.69;89.75;100910.97;1843624;76;21487;-85
2021/11/11 09:38:03;;;;;;;56.98;35.83;;;;;;;5.77;89.96;100912.81;1843009;78;21499;-85
2021/11/11 09:40:32;;;;;;;54.83;37.33;;;;;;;5.85;90.01;100909.85;1842980;78;21028;-82
2021/11/11 09:42:58;;;;;;;55.17;34.20;;;;;;;6.00;90.42;100912.30;1843243;77;21486;-82
2021/11/11 09:45:29;;;;;;;47.67;28.98;;;;;;;6.18;90.45;100908.84;1843082;78;21080;-83
2021/11/11 09:47:55;;;;;;;44.33;31.68;;;;;;;6.26;89.08;100910.67;1842968;78;21036;-85
2021/11/11 09:50:25;;;;;;;48.20;31.15;;;;;;;6.28;89.03;100911.91;1842470;76;20965;-84
2021/11/11 09:52:52;;;;;;;47.65;32.45;;;;;;;6.36;89.13;100912.42;1842051;77;21014;-84
2021/11/11 10:00:54;;;;;;;44.85;28.75;;;;;;;6.66;89.28;100892.25;1834952;78;21497;-83
2021/11/11 10:03:21;;;;;;;47.38;32.17;;;;;;;6.90;89.47;100895.00;1834853;78;20980;-84
2021/11/11 10:05:49;;;;;;;45.92;31.35;;;;;;;7.10;89.08;100891.41;1834185;78;21478;-85
2021/11/11 10:08:32;;;;;;;46.30;31.35;;;;;;;7.27;88.63;100890.56;1833993;78;20944;-84
2021/11/11 10:10:58;;;;;;;48.48;32.28;;;;;;;7.45;88.52;100884.41;1832435;78;20971;-83
2021/11/11 10:13:25;;;;;;;47.48;33.28;;;;;;;7.65;88.02;100887.80;1812917;78;21517;-81
2021/11/11 10:16:09;;;;;;;45.70;31.62;;;;;;;7.80;87.76;100880.44;1833188;78;21051;-82
2021/11/11 10:18:52;;;;;;;48.60;33.40;;;;;;;7.95;87.15;100877.45;1833716;77;20970;-81
2021/11/11 10:22:02;;;;;;;46.90;34.18;;;;;;;8.02;86.56;100876.66;1824264;78;20967;-81
2021/11/11 10:24:21;;;;;;;49.42;32.53;;;;;;;8.13;86.36;100876.48;1803116;78;21015;-81
2021/11/11 10:27:04;;;;;;;50.85;32.38;;;;;;;8.26;86.93;100877.13;1840204;77;20973;-80
2021/11/11 10:29:36;;;;;;;46.42;32.83;;;;;;;8.40;86.54;100878.12;1837213;77;21010;-81
2021/11/11 10:32:16;;;;;;;47.75;33.67;;;;;;;8.54;86.45;100868.61;1814408;78;21035;-80
2021/11/11 10:35:03;;;;;;;43.95;32.38;;;;;;;8.64;86.19;100869.80;1814125;78;20963;-80
2021/11/11 10:37:34;;;;;;;47.13;33.78;;;;;;;8.76;85.74;100866.48;1828225;78;21016;-79
2021/11/11 10:40:14;;;;;;;44.73;31.50;;;;;;;8.87;85.75;100870.66;1835328;78;20971;-80
2021/11/11 10:42:43;;;;;;;35.85;26.37;;;;;;;8.95;84.79;100874.20;1835314;78;21520;-80
2021/11/11 10:45:14;;;;;;;35.20;26.35;;;;;;;8.98;84.62;100873.14;1835485;77;20973;-81
2021/11/11 10:47:44;;;;;;;37.55;27.02;;;;;;;9.01;84.57;100876.45;1828179;78;21470;-81
2021/11/11 10:50:15;;;;;;;34.75;25.95;;;;;;;9.09;84.52;100870.77;1832773;78;20974;-81
2021/11/11 10:52:49;;;;;;;37.48;26.82;;;;;;;9.20;84.56;100876.24;1833449;78;21017;-81
2021/11/11 10:55:26;;;;;;;37.58;27.80;;;;;;;9.29;84.05;100878.82;1832917;78;21442;-80
2021/11/11 10:58:04;;;;;;;39.27;28.55;;;;;;;9.32;84.03;100873.38;1835145;78;20992;-80
2021/11/11 11:00:35;;;;;;;36.90;26.42;;;;;;;9.38;83.60;100869.91;1842730;77;21484;-80
2021/11/11 11:03:06;;;;;;;38.42;27.22;;;;;;;9.47;83.55;100873.77;1850567;76;20945;-82
2021/11/11 11:05:56;;;;;;;33.40;26.62;;;;;;;9.53;83.31;100877.84;1831377;76;21439;-83
2021/11/11 11:08:37;;;;;;;37.33;27.75;;;;;;;9.57;82.92;100876.23;1829569;78;20997;-83
2021/11/11 11:11:18;;;;;;;43.98;28.30;;;;;;;9.60;82.92;100872.09;1843076;78;21547;-83
2021/11/11 11:14:02;;;;;;;39.25;29.45;;;;;;;9.67;82.71;100871.73;1854016;76;21034;-83
2021/11/11 11:16:33;;;;;;;42.70;31.68;;;;;;;9.68;82.84;100869.03;1848980;76;20954;-83
2021/11/11 11:19:06;;;;;;;39.53;28.30;;;;;;;9.71;82.79;100872.80;1873675;76;21592;-83
2021/11/11 11:21:45;;;;;;;42.78;30.30;;;;;;;9.73;82.40;100870.89;1852967;76;20958;-83
2021/11/11 11:24:19;;;;;;;38.67;28.57;;;;;;;9.78;82.46;100869.31;1846992;76;20953;-83
2021/11/11 11:26:56;;;;;;;40.40;28.87;;;;;;;9.81;82.07;100873.09;1840321;78;21028;-83
2021/11/11 11:32:08;;;;;;;;;;;;;;;9.80;81.91;100870.05;1845962;78;21029;-82
2021/11/11 11:34:42;;;;;;;35.95;25.82;;;;;;;9.82;81.64;100869.03;1843313;78;20115;-82
2021/11/11 11:37:15;;;;;;;37.85;27.40;;;;;;;9.85;81.70;100866.20;1853499;76;21442;-83
2021/11/11 11:39:46;;;;;;;117.37;57.80;;;;;;;9.84;81.21;100861.89;1856630;76;21009;-83
2021/11/11 11:42:23;;;;;;;39.30;28.30;;;;;;;9.84;81.18;100863.68;1844311;76;20965;-82
2021/11/11 11:44:57;;;;;;;34.60;27.48;;;;;;;9.87;81.55;100859.51;1852526;76;21049;-83
2021/11/11 11:47:36;;;;;;;35.23;26.62;;;;;;;9.91;81.79;100854.45;1845898;76;20918;-84
2021/11/11 11:50:28;;;;;;;36.83;26.25;;;;;;;9.95;81.67;100859.06;1835375;76;21495;-82
2021/11/11 11:53:05;;;;;;;32.70;26.02;;;;;;;9.97;81.20;100861.11;1864581;76;20966;-84
2021/11/11 11:55:33;;;;;;;39.15;28.83;;;;;;;9.97;80.97;100858.03;1825754;76;21515;-84